| time (UTC) | temp F | wind direction | speed knots | gust knots | rain 1hr in | rain 24hr in | rain mn in | humidity % | barometer mb |
| 20260510180059 | 62 | 241 | 4.3 | 13.9 | 0.00 | 0.17 | 0.00 | 67 | 1010.3 |
| 20260510175533 | 62 | 237 | 6.1 | 13.0 | 0.00 | 0.21 | 0.00 | 66 | 1010.1 |
| 20260510175029 | 62 | 310 | 6.1 | 11.3 | 0.00 | 0.21 | 0.00 | 68 | 1010.2 |
| 20260510174525 | 62 | 303 | 4.3 | 12.2 | 0.00 | 0.21 | 0.00 | 68 | 1010.0 |
| 20260510174050 | 62 | 273 | 6.1 | 12.2 | 0.00 | 0.21 | 0.00 | 68 | 1010.0 |
| 20260510173554 | 61 | 237 | 6.1 | 13.9 | 0.00 | 0.21 | 0.00 | 67 | 1010.1 |
| 20260510173031 | 62 | 252 | 5.2 | 15.6 | 0.00 | 0.21 | 0.00 | 68 | 1010.0 |
| 20260510172553 | 61 | 226 | 7.0 | 15.6 | 0.00 | 0.21 | 0.00 | 67 | 1010.1 |
| 20260510172029 | 61 | 220 | 6.1 | 17.4 | 0.00 | 0.21 | 0.00 | 68 | 1010.2 |
| 20260510171550 | 61 | 235 | 8.7 | 17.4 | 0.00 | 0.21 | 0.00 | 68 | 1010.1 |
| 20260510171058 | 61 | 261 | 7.8 | 15.6 | 0.00 | 0.21 | 0.00 | 67 | 1010.0 |
| 20260510170532 | 61 | 234 | 7.8 | 16.5 | 0.00 | 0.21 | 0.00 | 68 | 1010.1 |
| 20260510170029 | 60 | 260 | 5.2 | 16.5 | 0.00 | 0.21 | 0.00 | 70 | 1010.0 |
| 20260510165551 | 60 | 233 | 7.0 | 13.9 | 0.00 | 0.26 | 0.00 | 71 | 1010.3 |
| 20260510165059 | 60 | 214 | 5.2 | 11.3 | 0.00 | 0.26 | 0.00 | 71 | 1010.2 |
| 20260510164534 | 60 | 199 | 7.0 | 11.3 | 0.00 | 0.26 | 0.00 | 70 | 1010.3 |
| 20260510164029 | 60 | 262 | 5.2 | 16.5 | 0.00 | 0.26 | 0.00 | 73 | 1010.3 |
| 20260510163534 | 59 | 224 | 4.3 | 12.2 | 0.00 | 0.26 | 0.00 | 76 | 1010.3 |
| 20260510163031 | 59 | 243 | 7.8 | 12.2 | 0.00 | 0.26 | 0.00 | 72 | 1010.5 |
| 20260510162614 | 60 | 276 | 3.5 | 10.4 | 0.00 | 0.26 | 0.00 | 73 | 1010.3 |
| 20260510162142 | 60 | 216 | 5.2 | 13.0 | 0.00 | 0.26 | 0.00 | 72 | 1010.4 |
| 20260510161629 | 60 | 181 | 7.0 | 12.2 | 0.00 | 0.26 | 0.00 | 71 | 1010.4 |
| 20260510161050 | 59 | 201 | 7.0 | 13.0 | 0.00 | 0.26 | 0.00 | 72 | 1010.5 |
| 20260510160615 | 59 | 216 | 4.3 | 13.0 | 0.00 | 0.26 | 0.00 | 72 | 1010.4 |
| 20260510160104 | 60 | 205 | 7.8 | 13.0 | 0.00 | 0.26 | 0.00 | 71 | 1010.5 |
| 20260510155612 | 60 | 233 | 2.6 | 8.7 | 0.00 | 0.30 | 0.00 | 72 | 1010.3 |
| 20260510155047 | 59 | 260 | 5.2 | 11.3 | 0.00 | 0.30 | 0.00 | 73 | 1010.4 |
| 20260510154550 | 59 | 260 | 5.2 | 11.3 | 0.00 | 0.30 | 0.00 | 73 | 1010.6 |
| 20260510154046 | 59 | 185 | 5.2 | 13.0 | 0.00 | 0.30 | 0.00 | 73 | 1010.4 |
| 20260510153529 | 59 | 237 | 6.1 | 13.0 | 0.00 | 0.30 | 0.00 | 72 | 1010.6 |
| 20260510153052 | 60 | 251 | 7.0 | 12.2 | 0.00 | 0.30 | 0.00 | 72 | 1010.3 |
| 20260510152553 | 60 | 237 | 3.5 | 10.4 | 0.00 | 0.30 | 0.00 | 73 | 1010.3 |
| 20260510152028 | 60 | 238 | 3.5 | 10.4 | 0.00 | 0.30 | 0.00 | 73 | 1010.2 |
| 20260510151525 | 60 | 253 | 5.2 | 9.6 | 0.00 | 0.30 | 0.00 | 74 | 1010.2 |
| 20260510151049 | 60 | 210 | 5.2 | 8.7 | 0.00 | 0.30 | 0.00 | 74 | 1010.1 |
| 20260510150616 | 59 | 207 | 4.3 | 11.3 | 0.00 | 0.30 | 0.00 | 75 | 1010.2 |
| 20260510150106 | 59 | 272 | 7.0 | 11.3 | 0.00 | 0.30 | 0.00 | 74 | 1010.2 |
| 20260510145540 | 59 | 226 | 7.0 | 13.0 | 0.00 | 0.34 | 0.00 | 74 | 1010.0 |
| 20260510145031 | 59 | 241 | 5.2 | 12.2 | 0.00 | 0.34 | 0.00 | 75 | 1010.0 |
| 20260510144556 | 59 | 170 | 4.3 | 13.0 | 0.00 | 0.34 | 0.00 | 75 | 1009.9 |
| 20260510144032 | 59 | 172 | 5.2 | 10.4 | 0.00 | 0.34 | 0.00 | 76 | 1010.0 |
| 20260510143528 | 58 | 207 | 3.5 | 12.2 | 0.00 | 0.34 | 0.00 | 76 | 1009.9 |
| 20260510143058 | 58 | 233 | 6.1 | 12.2 | 0.00 | 0.34 | 0.00 | 76 | 1009.9 |
| 20260510142532 | 58 | 256 | 6.1 | 12.2 | 0.00 | 0.34 | 0.00 | 77 | 1009.9 |
| 20260510142027 | 58 | 256 | 4.3 | 11.3 | 0.00 | 0.34 | 0.00 | 81 | 1009.8 |
| 20260510141616 | 57 | 203 | 7.8 | 12.2 | 0.00 | 0.34 | 0.00 | 77 | 1010.0 |
| 20260510141055 | 57 | 204 | 4.3 | 12.2 | 0.00 | 0.34 | 0.00 | 78 | 1009.9 |
| 20260510140530 | 57 | 200 | 6.1 | 12.2 | 0.00 | 0.34 | 0.00 | 79 | 1009.8 |
| 20260510140026 | 57 | 201 | 5.2 | 12.2 | 0.00 | 0.34 | 0.00 | 80 | 1009.8 |
| 20260510135547 | 56 | 191 | 7.8 | 12.2 | 0.00 | 0.35 | 0.00 | 79 | 1010.0 |
| 20260510135024 | 56 | 22 | 1.7 | 8.7 | 0.00 | 0.35 | 0.00 | 82 | 1010.0 |
| 20260510134530 | 56 | 163 | 5.2 | 8.7 | 0.00 | 0.35 | 0.00 | 82 | 1010.0 |
| 20260510134055 | 56 | 238 | 3.5 | 9.6 | 0.00 | 0.35 | 0.00 | 82 | 1010.0 |
| 20260510133529 | 56 | 125 | 3.5 | 8.7 | 0.00 | 0.35 | 0.00 | 83 | 1009.9 |
| 20260510133101 | 55 | 229 | 4.3 | 8.7 | 0.00 | 0.35 | 0.00 | 85 | 1010.0 |
| 20260510132533 | 55 | 210 | 3.5 | 11.3 | 0.00 | 0.35 | 0.00 | 88 | 1009.9 |
| 20260510132027 | 54 | 241 | 5.2 | 11.3 | 0.00 | 0.35 | 0.00 | 87 | 1010.0 |
| 20260510131617 | 54 | 222 | 5.2 | 9.6 | 0.00 | 0.35 | 0.00 | 87 | 1010.0 |
| 20260510131032 | 54 | 183 | 6.1 | 10.4 | 0.00 | 0.35 | 0.00 | 89 | 1009.9 |
| 20260510130527 | 54 | 222 | 3.5 | 8.7 | 0.00 | 0.35 | 0.00 | 92 | 1009.9 |
| 20260510130147 | 53 | 183 | 2.6 | 5.2 | 0.00 | 0.35 | 0.00 | 95 | 1009.7 |
| 20260510125538 | 52 | 171 | 2.6 | 5.2 | 0.00 | 0.38 | 0.00 | 98 | 1009.9 |
| 20260510125108 | 51 | 179 | 1.7 | 3.5 | 0.00 | 0.38 | 0.00 | 99 | 1009.7 |
| 20260510124612 | 50 | 159 | 0.9 | 4.3 | 0.00 | 0.38 | 0.00 | 99 | 1009.7 |
| 20260510124054 | 49 | 148 | 0.9 | 4.3 | 0.00 | 0.38 | 0.00 | 99 | 1009.6 |
| 20260510123550 | 49 | 162 | 0.9 | 1.7 | 0.00 | 0.38 | 0.00 | 99 | 1009.7 |
| 20260510123054 | 49 | 160 | 0.9 | 2.6 | 0.00 | 0.38 | 0.00 | 99 | 1009.7 |
| 20260510122547 | 48 | 179 | 0.9 | 2.6 | 0.00 | 0.38 | 0.00 | 99 | 1009.6 |
| 20260510122050 | 48 | 199 | 0.9 | 3.5 | 0.00 | 0.38 | 0.00 | 99 | 1009.6 |
| 20260510121545 | 48 | 187 | 1.7 | 3.5 | 0.00 | 0.38 | 0.00 | 99 | 1009.6 |
| 20260510121041 | 48 | 163 | 0.9 | 3.5 | 0.00 | 0.38 | 0.00 | 99 | 1009.6 |
| 20260510120606 | 48 | 208 | 0.9 | 4.3 | 0.00 | 0.38 | 0.00 | 99 | 1009.6 |
| 20260510120043 | 48 | 244 | 0.9 | 4.3 | 0.00 | 0.38 | 0.00 | 99 | 1009.7 |
| 20260510115536 | 47 | 186 | 2.6 | 6.1 | 0.00 | 0.40 | 0.00 | 99 | 1009.6 |
| 20260510115033 | 47 | 208 | 3.5 | 6.1 | 0.00 | 0.40 | 0.00 | 99 | 1009.7 |
| 20260510114528 | 47 | 187 | 0.9 | 4.3 | 0.00 | 0.40 | 0.00 | 99 | 1009.6 |
| 20260510114119 | 47 | 201 | 1.7 | 4.3 | 0.00 | 0.40 | 0.00 | 99 | 1009.7 |
| 20260510113533 | 47 | 176 | 1.7 | 4.3 | 0.00 | 0.40 | 0.00 | 99 | 1009.7 |
| 20260510113031 | 47 | 187 | 0.9 | 4.3 | 0.00 | 0.40 | 0.00 | 99 | 1009.7 |
| 20260510112554 | 47 | 217 | 2.6 | 4.3 | 0.00 | 0.40 | 0.00 | 99 | 1009.7 |
| 20260510112025 | 47 | 161 | 0.9 | 4.3 | 0.00 | 0.40 | 0.00 | 99 | 1009.7 |
| 20260510111551 | 47 | 253 | 1.7 | 4.3 | 0.00 | 0.40 | 0.00 | 99 | 1009.6 |
| 20260510111117 | 47 | 183 | 2.6 | 4.3 | 0.00 | 0.40 | 0.00 | 99 | 1009.6 |
| 20260510110532 | 47 | 189 | 1.7 | 5.2 | 0.00 | 0.40 | 0.00 | 99 | 1009.6 |
| 20260510110030 | 47 | 148 | 1.7 | 3.5 | 0.00 | 0.40 | 0.00 | 99 | 1009.5 |
| 20260510105550 | 47 | 166 | 1.7 | 3.5 | 0.00 | 0.49 | 0.00 | 99 | 1009.4 |
| 20260510105058 | 47 | 166 | 1.7 | 4.3 | 0.00 | 0.49 | 0.00 | 99 | 1009.3 |
| 20260510104533 | 47 | 164 | 2.6 | 5.2 | 0.00 | 0.49 | 0.00 | 99 | 1009.1 |
| 20260510104138 | 47 | 185 | 2.6 | 5.2 | 0.00 | 0.49 | 0.00 | 99 | 1009.0 |
| 20260510103605 | 47 | 133 | 0.9 | 6.1 | 0.00 | 0.49 | 0.00 | 99 | 1009.0 |
| 20260510103041 | 47 | 170 | 3.5 | 6.1 | 0.00 | 0.49 | 0.00 | 99 | 1009.0 |
| 20260510102609 | 47 | 179 | 1.7 | 4.3 | 0.00 | 0.49 | 0.00 | 99 | 1008.9 |
| 20260510102043 | 47 | 191 | 2.6 | 4.3 | 0.00 | 0.49 | 0.00 | 98 | 1008.6 |
| 20260510101650 | 47 | 169 | 1.7 | 4.3 | 0.00 | 0.49 | 0.00 | 98 | 1008.9 |
| 20260510101044 | 47 | 196 | 1.7 | 4.3 | 0.00 | 0.49 | 0.00 | 98 | 1008.7 |
| 20260510100633 | 47 | 172 | 1.7 | 4.3 | 0.00 | 0.49 | 0.00 | 98 | 1008.7 |
| 20260510100050 | 47 | 196 | 1.7 | 6.1 | 0.00 | 0.49 | 0.00 | 98 | 1008.7 |
| 20260510095544 | 47 | 198 | 2.6 | 6.1 | 0.00 | 0.54 | 0.00 | 98 | 1008.7 |
| 20260510095041 | 47 | 195 | 2.6 | 4.3 | 0.00 | 0.54 | 0.00 | 99 | 1008.5 |
| 20260510094611 | 47 | 195 | 0.9 | 3.5 | 0.00 | 0.54 | 0.00 | 99 | 1008.3 |
| 20260510094025 | 47 | 187 | 1.7 | 3.5 | 0.00 | 0.54 | 0.00 | 99 | 1008.1 |
| 20260510093609 | 47 | 143 | 1.7 | 4.3 | 0.00 | 0.54 | 0.00 | 98 | 1008.2 |
| 20260510093052 | 47 | 195 | 0.9 | 4.3 | 0.00 | 0.54 | 0.00 | 98 | 1008.2 |
| 20260510092639 | 47 | 204 | 1.7 | 4.3 | 0.00 | 0.54 | 0.00 | 98 | 1008.1 |
| 20260510092032 | 47 | 131 | 2.6 | 7.0 | 0.00 | 0.54 | 0.00 | 98 | 1007.9 |
| 20260510091529 | 47 | 166 | 4.3 | 7.0 | 0.00 | 0.54 | 0.00 | 98 | 1007.7 |
| 20260510091058 | 47 | 160 | 2.6 | 7.0 | 0.00 | 0.54 | 0.00 | 98 | 1007.9 |
| 20260510090532 | 47 | 174 | 1.7 | 6.1 | 0.00 | 0.54 | 0.00 | 98 | 1008.0 |
| 20260510090059 | 47 | 233 | 1.7 | 5.2 | 0.00 | 0.54 | 0.00 | 98 | 1008.0 |
| 20260510085533 | 47 | 162 | 1.7 | 5.2 | 0.00 | 0.54 | 0.00 | 98 | 1007.8 |
| 20260510085153 | 47 | 187 | 2.6 | 6.1 | 0.00 | 0.54 | 0.00 | 98 | 1007.9 |
| 20260510084546 | 47 | 188 | 2.6 | 6.1 | 0.00 | 0.54 | 0.00 | 98 | 1008.0 |
| 20260510084042 | 47 | 164 | 2.6 | 6.1 | 0.00 | 0.54 | 0.00 | 98 | 1008.0 |
| 20260510083539 | 47 | 187 | 1.7 | 4.3 | 0.00 | 0.54 | 0.00 | 98 | 1008.0 |
| 20260510083036 | 47 | 259 | 1.7 | 7.8 | 0.00 | 0.54 | 0.00 | 98 | 1008.3 |
| 20260510082529 | 47 | 224 | 3.5 | 7.8 | 0.00 | 0.54 | 0.00 | 98 | 1008.2 |
| 20260510082025 | 47 | 239 | 4.3 | 7.0 | 0.00 | 0.54 | 0.00 | 98 | 1008.4 |
| 20260510081546 | 47 | 213 | 2.6 | 7.0 | 0.00 | 0.54 | 0.00 | 98 | 1008.5 |
| 20260510081042 | 47 | 222 | 2.6 | 6.1 | 0.00 | 0.54 | 0.00 | 99 | 1008.4 |
| 20260510080610 | 47 | 212 | 2.6 | 4.3 | 0.00 | 0.54 | 0.00 | 99 | 1008.5 |
| 20260510080059 | 47 | 219 | 2.6 | 6.1 | 0.00 | 0.54 | 0.00 | 99 | 1008.6 |
| 20260510075607 | 47 | 208 | 3.5 | 5.2 | 0.00 | 0.54 | 0.00 | 99 | 1008.6 |
| 20260510075042 | 47 | 222 | 2.6 | 7.0 | 0.00 | 0.54 | 0.00 | 98 | 1008.6 |
| 20260510074540 | 47 | 222 | 2.6 | 7.0 | 0.00 | 0.54 | 0.00 | 98 | 1008.6 |
| 20260510074036 | 47 | 236 | 3.5 | 7.8 | 0.00 | 0.54 | 0.00 | 98 | 1008.6 |
| 20260510073532 | 46 | 226 | 2.6 | 6.1 | 0.00 | 0.54 | 0.00 | 98 | 1008.5 |
| 20260510073101 | 46 | 225 | 2.6 | 6.1 | 0.00 | 0.54 | 0.00 | 98 | 1008.6 |
| 20260510072534 | 46 | 231 | 1.7 | 6.1 | 0.00 | 0.54 | 0.00 | 98 | 1008.4 |
| 20260510072030 | 46 | 251 | 3.5 | 6.1 | 0.00 | 0.54 | 0.00 | 98 | 1008.4 |
| 20260510071527 | 46 | 239 | 2.6 | 6.1 | 0.00 | 0.54 | 0.00 | 98 | 1008.3 |
| 20260510071052 | 46 | 238 | 2.6 | 6.1 | 0.00 | 0.54 | 0.00 | 98 | 1008.4 |
| 20260510070549 | 46 | 246 | 1.7 | 5.2 | 0.00 | 0.54 | 0.00 | 98 | 1008.3 |
| 20260510070053 | 46 | 219 | 1.7 | 5.2 | 0.00 | 0.54 | 0.00 | 98 | 1008.2 |
| 20260510065619 | 46 | 247 | 2.6 | 5.2 | 0.00 | 0.54 | 0.00 | 98 | 1008.1 |
| 20260510065106 | 46 | 191 | 1.7 | 4.3 | 0.00 | 0.54 | 0.00 | 98 | 1007.9 |
| 20260510064541 | 46 | 190 | 1.7 | 4.3 | 0.00 | 0.54 | 0.00 | 98 | 1008.1 |
| 20260510064111 | 46 | 214 | 2.6 | 6.1 | 0.00 | 0.54 | 0.00 | 98 | 1008.0 |
| 20260510063553 | 46 | 226 | 0.9 | 6.1 | 0.00 | 0.54 | 0.00 | 98 | 1008.1 |
| 20260510063029 | 46 | 193 | 1.7 | 6.1 | 0.00 | 0.54 | 0.00 | 98 | 1007.9 |
| 20260510062618 | 46 | 224 | 3.5 | 6.1 | 0.00 | 0.54 | 0.00 | 98 | 1008.0 |
| 20260510062031 | 46 | 210 | 1.7 | 4.3 | 0.00 | 0.54 | 0.00 | 98 | 1008.2 |
| 20260510061528 | 46 | 219 | 2.6 | 6.1 | 0.00 | 0.54 | 0.00 | 98 | 1008.1 |
| 20260510061048 | 46 | 225 | 2.6 | 6.1 | 0.00 | 0.54 | 0.00 | 98 | 1008.1 |
| 20260510060550 | 46 | 258 | 1.7 | 6.1 | 0.00 | 0.54 | 0.00 | 98 | 1008.1 |
| 20260510060101 | 47 | 216 | 3.5 | 6.1 | 0.00 | 0.54 | 0.00 | 98 | 1008.2 |
| 20260510055534 | 47 | 195 | 2.6 | 6.1 | 0.00 | 0.54 | 0.00 | 98 | 1008.2 |
| 20260510055103 | 47 | 235 | 3.5 | 7.0 | 0.00 | 0.54 | 0.00 | 98 | 1008.3 |
| 20260510054612 | 47 | 146 | 2.6 | 5.2 | 0.00 | 0.54 | 0.00 | 98 | 1008.4 |
| 20260510054059 | 47 | 206 | 2.6 | 7.8 | 0.00 | 0.54 | 0.00 | 98 | 1008.5 |
| 20260510053534 | 47 | 224 | 2.6 | 8.7 | 0.00 | 0.54 | 0.00 | 98 | 1008.5 |
| 20260510053100 | 47 | 152 | 4.3 | 8.7 | 0.00 | 0.54 | 0.00 | 98 | 1008.5 |
| 20260510052605 | 47 | 190 | 2.6 | 7.0 | 0.00 | 0.54 | 0.00 | 98 | 1008.3 |
| 20260510052038 | 47 | 218 | 4.3 | 7.8 | 0.00 | 0.54 | 0.00 | 98 | 1008.4 |
| 20260510051535 | 47 | 149 | 2.6 | 7.8 | 0.00 | 0.54 | 0.00 | 98 | 1008.4 |
| 20260510051030 | 47 | 153 | 4.3 | 6.1 | 0.00 | 0.54 | 0.00 | 98 | 1008.5 |
| 20260510050524 | 47 | 222 | 2.6 | 6.1 | 0.00 | 0.54 | 0.00 | 98 | 1008.4 |
| 20260510050050 | 47 | 189 | 1.7 | 6.1 | 0.00 | 0.54 | 0.00 | 98 | 1008.4 |
| 20260510045613 | 47 | 221 | 3.5 | 8.7 | 0.00 | 0.54 | 0.00 | 98 | 1008.5 |
| 20260510045117 | 47 | 172 | 2.6 | 8.7 | 0.00 | 0.54 | 0.00 | 98 | 1008.5 |
| 20260510044603 | 47 | 186 | 4.3 | 7.8 | 0.00 | 0.54 | 0.00 | 98 | 1008.5 |
| 20260510044132 | 47 | 189 | 2.6 | 7.0 | 0.00 | 0.54 | 0.00 | 98 | 1008.4 |
| 20260510043548 | 47 | 174 | 2.6 | 6.1 | 0.00 | 0.54 | 0.00 | 98 | 1008.3 |
| 20260510043146 | 47 | 164 | 0.9 | 4.3 | 0.00 | 0.54 | 0.00 | 98 | 1008.3 |
| 20260510042537 | 47 | 153 | 1.7 | 4.3 | 0.00 | 0.54 | 0.00 | 98 | 1008.4 |
| 20260510042104 | 47 | 168 | 2.6 | 3.5 | 0.00 | 0.54 | 0.00 | 98 | 1008.4 |
| 20260510041539 | 47 | 196 | 1.7 | 3.5 | 0.00 | 0.54 | 0.00 | 98 | 1008.5 |
| 20260510041034 | 47 | 167 | 1.7 | 4.3 | 0.00 | 0.54 | 0.00 | 98 | 1008.4 |
| 20260510040531 | 47 | 158 | 0.9 | 3.5 | 0.00 | 0.54 | 0.00 | 98 | 1008.5 |
| 20260510040029 | 47 | 158 | 2.6 | 3.5 | 0.00 | 0.54 | 0.00 | 98 | 1008.3 |
| 20260510035638 | 47 | 139 | 1.7 | 4.3 | 0.00 | 0.54 | 0.00 | 98 | 1008.2 |
| 20260510035030 | 47 | 125 | 2.6 | 3.5 | 0.00 | 0.54 | 0.00 | 98 | 1008.2 |
| 20260510034525 | 47 | 143 | 1.7 | 5.2 | 0.00 | 0.54 | 0.00 | 98 | 1008.3 |
| 20260510034111 | 47 | 146 | 2.6 | 5.2 | 0.00 | 0.54 | 0.00 | 98 | 1008.3 |
| 20260510033547 | 47 | 158 | 1.7 | 5.2 | 0.00 | 0.54 | 0.00 | 98 | 1008.5 |
| 20260510033045 | 47 | 149 | 2.6 | 5.2 | 0.00 | 0.54 | 0.00 | 98 | 1008.5 |
| 20260510032541 | 47 | 170 | 2.6 | 5.2 | 0.00 | 0.54 | 0.00 | 98 | 1008.5 |
| 20260510032113 | 47 | 142 | 2.6 | 5.2 | 0.00 | 0.54 | 0.00 | 98 | 1008.4 |
| 20260510031554 | 47 | 130 | 2.6 | 5.2 | 0.00 | 0.54 | 0.00 | 98 | 1008.4 |
| 20260510031030 | 47 | 158 | 1.7 | 5.2 | 0.00 | 0.54 | 0.00 | 98 | 1008.4 |
| 20260510030559 | 47 | 155 | 1.7 | 5.2 | 0.00 | 0.54 | 0.00 | 98 | 1008.5 |
| 20260510030035 | 47 | 147 | 2.6 | 5.2 | 0.00 | 0.54 | 0.00 | 98 | 1008.4 |
| 20260510025525 | 47 | 132 | 2.6 | 4.3 | 0.00 | 0.54 | 0.00 | 98 | 1008.4 |
| 20260510025050 | 47 | 145 | 2.6 | 6.1 | 0.00 | 0.54 | 0.00 | 98 | 1008.5 |
| 20260510024546 | 47 | 160 | 2.6 | 7.0 | 0.00 | 0.54 | 0.00 | 98 | 1008.6 |
| 20260510024043 | 47 | 126 | 2.6 | 5.2 | 0.00 | 0.54 | 0.00 | 98 | 1008.5 |
| 20260510023540 | 47 | 143 | 2.6 | 5.2 | 0.00 | 0.54 | 0.00 | 98 | 1008.5 |
| 20260510022531 | 47 | 148 | 2.6 | 4.3 | 0.00 | 0.54 | 0.00 | 98 | 1008.6 |
| 20260510022100 | 47 | 165 | 2.6 | 5.2 | 0.00 | 0.54 | 0.00 | 98 | 1008.5 |
| 20260510021534 | 47 | 171 | 2.6 | 6.1 | 0.00 | 0.54 | 0.00 | 97 | 1008.5 |
| 20260510021104 | 47 | 139 | 2.6 | 6.1 | 0.00 | 0.54 | 0.00 | 97 | 1008.5 |
| 20260510020536 | 47 | 141 | 3.5 | 7.0 | 0.00 | 0.54 | 0.00 | 97 | 1008.4 |
| 20260510020032 | 47 | 127 | 3.5 | 7.0 | 0.00 | 0.54 | 0.00 | 97 | 1008.3 |
| 20260510015528 | 47 | 123 | 2.6 | 7.8 | 0.00 | 0.54 | 0.00 | 97 | 1008.4 |
| 20260510015051 | 47 | 125 | 2.6 | 7.8 | 0.00 | 0.54 | 0.00 | 97 | 1008.6 |
| 20260510014547 | 47 | 154 | 1.7 | 7.0 | 0.00 | 0.54 | 0.00 | 97 | 1008.7 |
| 20260510014051 | 47 | 152 | 4.3 | 7.0 | 0.00 | 0.54 | 0.00 | 97 | 1008.6 |
| 20260510013548 | 47 | 133 | 4.3 | 7.0 | 0.00 | 0.54 | 0.00 | 97 | 1008.7 |
| 20260510013058 | 47 | 138 | 3.5 | 7.0 | 0.00 | 0.54 | 0.00 | 97 | 1008.7 |
| 20260510012620 | 47 | 145 | 4.3 | 6.1 | 0.00 | 0.54 | 0.00 | 97 | 1009.0 |
| 20260510012034 | 47 | 154 | 3.5 | 7.0 | 0.00 | 0.54 | 0.00 | 97 | 1008.9 |
| 20260510011602 | 47 | 180 | 2.6 | 7.0 | 0.00 | 0.54 | 0.00 | 97 | 1008.8 |
| 20260510011036 | 47 | 143 | 3.5 | 7.0 | 0.00 | 0.54 | 0.00 | 97 | 1008.7 |
| 20260510010625 | 47 | 158 | 2.6 | 6.1 | 0.00 | 0.54 | 0.00 | 97 | 1008.6 |
| 20260510010039 | 47 | 125 | 2.6 | 6.1 | 0.00 | 0.54 | 0.00 | 97 | 1008.5 |
| 20260510005533 | 47 | 137 | 1.7 | 2.6 | 0.00 | 0.54 | 0.00 | 97 | 1008.5 |
| 20260510005028 | 47 | 154 | 0.9 | 6.1 | 0.00 | 0.54 | 0.00 | 97 | 1008.3 |
| 20260510004614 | 47 | 148 | 2.6 | 6.1 | 0.00 | 0.54 | 0.00 | 97 | 1008.1 |
| 20260510004101 | 47 | 122 | 0.9 | 6.1 | 0.00 | 0.54 | 0.00 | 97 | 1008.1 |
| 20260510003537 | 47 | 186 | 2.6 | 7.0 | 0.00 | 0.54 | 0.00 | 97 | 1007.9 |
| 20260510003033 | 47 | 131 | 4.3 | 7.8 | 0.00 | 0.54 | 0.00 | 97 | 1008.0 |
| 20260510002528 | 47 | 160 | 3.5 | 7.0 | 0.00 | 0.54 | 0.00 | 97 | 1008.1 |
| 20260510002052 | 47 | 151 | 4.3 | 7.8 | 0.00 | 0.54 | 0.00 | 97 | 1008.0 |
| 20260510001548 | 47 | 154 | 3.5 | 8.7 | 0.00 | 0.54 | 0.00 | 96 | 1007.8 |
| 20260510001052 | 47 | 112 | 2.6 | 7.8 | 0.00 | 0.54 | 0.00 | 96 | 1007.7 |
| 20260510000547 | 47 | 129 | 3.5 | 7.8 | 0.00 | 0.54 | 0.00 | 96 | 1007.8 |
| 20260510000045 | 47 | 142 | 3.5 | 6.1 | 0.00 | 0.54 | 0.00 | 96 | 1007.7 |
| 20260509235555 | 47 | 152 | 2.6 | 5.2 | 0.00 | 0.54 | 0.54 | 96 | 1007.6 |
| 20260509235030 | 47 | 138 | 3.5 | 5.2 | 0.00 | 0.54 | 0.54 | 96 | 1007.6 |
| 20260509234601 | 47 | 195 | 2.6 | 5.2 | 0.00 | 0.54 | 0.54 | 96 | 1007.7 |
| 20260509234109 | 47 | 156 | 0.9 | 7.0 | 0.00 | 0.54 | 0.54 | 95 | 1007.8 |
| 20260509233544 | 47 | 230 | 2.6 | 7.0 | 0.00 | 0.54 | 0.54 | 95 | 1007.7 |
| 20260509233041 | 48 | 188 | 2.6 | 7.0 | 0.00 | 0.54 | 0.54 | 95 | 1007.7 |
| 20260509232536 | 48 | 208 | 1.7 | 7.8 | 0.00 | 0.54 | 0.54 | 95 | 1007.7 |
| 20260509232140 | 48 | 194 | 3.5 | 10.4 | 0.00 | 0.54 | 0.54 | 95 | 1007.5 |
| 20260509231656 | 48 | 149 | 4.3 | 10.4 | 0.00 | 0.54 | 0.54 | 95 | 1007.4 |
| 20260509231048 | 48 | 147 | 6.1 | 10.4 | 0.00 | 0.54 | 0.54 | 95 | 1007.5 |
| 20260509230543 | 48 | 168 | 5.2 | 10.4 | 0.00 | 0.54 | 0.54 | 95 | 1007.6 |
| 20260509230040 | 48 | 154 | 5.2 | 8.7 | 0.00 | 0.54 | 0.54 | 95 | 1007.6 |
| 20260509225609 | 48 | 153 | 5.2 | 7.8 | 0.00 | 0.54 | 0.54 | 95 | 1007.6 |
| 20260509225054 | 48 | 136 | 4.3 | 7.8 | 0.00 | 0.54 | 0.54 | 95 | 1007.7 |
| 20260509224619 | 48 | 174 | 2.6 | 9.6 | 0.00 | 0.54 | 0.54 | 95 | 1007.8 |
| 20260509224031 | 48 | 173 | 3.5 | 9.6 | 0.00 | 0.54 | 0.54 | 95 | 1007.7 |
| 20260509223641 | 48 | 138 | 1.7 | 9.6 | 0.00 | 0.54 | 0.54 | 95 | 1007.7 |
| 20260509223037 | 48 | 143 | 2.6 | 9.6 | 0.00 | 0.54 | 0.54 | 95 | 1007.6 |
| 20260509222558 | 48 | 156 | 4.3 | 7.8 | 0.00 | 0.54 | 0.54 | 95 | 1007.6 |
| 20260509222036 | 48 | 155 | 2.6 | 7.8 | 0.00 | 0.54 | 0.54 | 95 | 1007.6 |
| 20260509221604 | 48 | 174 | 2.6 | 7.0 | 0.00 | 0.54 | 0.54 | 95 | 1007.7 |
| 20260509221035 | 48 | 157 | 3.5 | 7.0 | 0.00 | 0.54 | 0.54 | 95 | 1007.8 |
| 20260509220605 | 48 | 164 | 3.5 | 6.1 | 0.00 | 0.54 | 0.54 | 94 | 1007.5 |
| 20260509220114 | 48 | 154 | 4.3 | 7.0 | 0.00 | 0.54 | 0.54 | 94 | 1007.6 |
| 20260509215558 | 48 | 178 | 3.5 | 10.4 | 0.00 | 0.54 | 0.54 | 94 | 1007.5 |
| 20260509215107 | 48 | 177 | 4.3 | 10.4 | 0.00 | 0.54 | 0.54 | 94 | 1007.5 |
| 20260509214637 | 48 | 180 | 2.6 | 7.0 | 0.00 | 0.54 | 0.54 | 94 | 1007.6 |
| 20260509214029 | 48 | 172 | 2.6 | 7.0 | 0.00 | 0.54 | 0.54 | 94 | 1007.8 |
| 20260509213550 | 48 | 160 | 2.6 | 7.0 | 0.00 | 0.54 | 0.54 | 94 | 1007.7 |
| 20260509213100 | 48 | 204 | 2.6 | 8.7 | 0.00 | 0.54 | 0.54 | 94 | 1007.8 |
| 20260509212533 | 48 | 255 | 2.6 | 8.7 | 0.00 | 0.54 | 0.54 | 94 | 1007.8 |
| 20260509212027 | 48 | 199 | 2.6 | 10.4 | 0.01 | 0.54 | 0.54 | 95 | 1007.8 |
| 20260509211552 | 48 | 192 | 4.3 | 10.4 | 0.01 | 0.54 | 0.54 | 94 | 1007.9 |
| 20260509211027 | 48 | 211 | 4.3 | 13.9 | 0.01 | 0.54 | 0.54 | 94 | 1008.0 |
| 20260509210552 | 48 | 144 | 4.3 | 9.6 | 0.02 | 0.54 | 0.54 | 94 | 1007.9 |
| 20260509210056 | 48 | 254 | 5.2 | 8.7 | 0.02 | 0.54 | 0.54 | 95 | 1007.9 |
| 20260509205621 | 48 | 147 | 3.5 | 10.4 | 0.03 | 0.54 | 0.54 | 96 | 1008.0 |
| 20260509205033 | 48 | 218 | 4.3 | 8.7 | 0.04 | 0.54 | 0.54 | 96 | 1008.1 |
| 20260509204603 | 48 | 168 | 3.5 | 8.7 | 0.05 | 0.54 | 0.54 | 96 | 1008.3 |
| 20260509204037 | 48 | 224 | 3.5 | 7.0 | 0.05 | 0.54 | 0.54 | 97 | 1008.3 |
| 20260509203607 | 48 | 202 | 2.6 | 12.2 | 0.06 | 0.54 | 0.54 | 97 | 1008.3 |
| 20260509203042 | 47 | 192 | 7.0 | 12.2 | 0.07 | 0.54 | 0.54 | 98 | 1008.4 |
| 20260509202609 | 47 | 214 | 5.2 | 13.0 | 0.08 | 0.54 | 0.54 | 98 | 1008.5 |
| 20260509202043 | 47 | 174 | 4.3 | 12.2 | 0.08 | 0.53 | 0.53 | 98 | 1008.4 |
| 20260509201649 | 47 | 176 | 2.6 | 12.2 | 0.09 | 0.53 | 0.53 | 98 | 1008.6 |
| 20260509201136 | 46 | 198 | 5.2 | 7.8 | 0.10 | 0.53 | 0.53 | 98 | 1008.5 |
| 20260509200528 | 46 | 154 | 3.5 | 7.8 | 0.10 | 0.52 | 0.52 | 98 | 1008.6 |
| 20260509200036 | 46 | 233 | 3.5 | 5.2 | 0.11 | 0.52 | 0.52 | 98 | 1008.7 |
| 20260509195530 | 45 | 160 | 1.7 | 4.3 | 0.10 | 0.51 | 0.51 | 98 | 1008.6 |
| 20260509195053 | 45 | 150 | 2.6 | 5.2 | 0.10 | 0.50 | 0.50 | 98 | 1008.5 |
| 20260509194554 | 45 | 156 | 1.7 | 6.1 | 0.09 | 0.49 | 0.49 | 98 | 1008.7 |
| 20260509194102 | 44 | 129 | 3.5 | 7.0 | 0.09 | 0.49 | 0.49 | 98 | 1008.7 |
| 20260509193538 | 44 | 118 | 2.6 | 7.0 | 0.09 | 0.48 | 0.48 | 98 | 1008.7 |
| 20260509193034 | 44 | 131 | 2.6 | 6.1 | 0.08 | 0.47 | 0.47 | 98 | 1008.7 |
| 20260509192526 | 44 | 127 | 2.6 | 6.1 | 0.07 | 0.46 | 0.46 | 98 | 1008.6 |
| 20260509192049 | 44 | 125 | 1.7 | 6.1 | 0.06 | 0.44 | 0.44 | 98 | 1008.5 |
| 20260509191637 | 44 | 119 | 1.7 | 6.1 | 0.06 | 0.44 | 0.44 | 98 | 1008.6 |
| 20260509191121 | 44 | 144 | 2.6 | 5.2 | 0.05 | 0.43 | 0.43 | 98 | 1008.8 |
| 20260509190534 | 44 | 132 | 1.7 | 3.5 | 0.04 | 0.42 | 0.42 | 98 | 1008.5 |
| 20260509190031 | 44 | 131 | 1.7 | 3.5 | 0.04 | 0.41 | 0.41 | 98 | 1008.6 |
| 20260509185559 | 44 | 94 | 1.7 | 2.6 | 0.04 | 0.41 | 0.41 | 98 | 1008.7 |
| 20260509185033 | 44 | 91 | 1.7 | 3.5 | 0.03 | 0.40 | 0.40 | 98 | 1008.9 |
| 20260509184603 | 43 | 117 | 1.7 | 4.3 | 0.04 | 0.40 | 0.40 | 98 | 1008.8 |
| 20260509184039 | 43 | 119 | 1.7 | 4.3 | 0.04 | 0.40 | 0.40 | 98 | 1008.8 |
| 20260509183610 | 43 | 114 | 0.9 | 3.5 | 0.03 | 0.39 | 0.39 | 98 | 1008.8 |
| 20260509183050 | 43 | 91 | 0.9 | 3.5 | 0.04 | 0.39 | 0.39 | 98 | 1008.8 |
| 20260509182552 | 43 | 129 | 0.9 | 3.5 | 0.04 | 0.39 | 0.39 | 98 | 1008.9 |
| 20260509182027 | 43 | 101 | 1.7 | 5.2 | 0.03 | 0.38 | 0.38 | 98 | 1009.0 |
| 20260509181616 | 43 | 116 | 1.7 | 3.5 | 0.04 | 0.38 | 0.38 | 97 | 1009.0 |
| 20260509181030 | 43 | 101 | 1.7 | 5.2 | 0.04 | 0.38 | 0.38 | 98 | 1009.1 |
| 20260509180525 | 43 | 74 | 1.7 | 3.5 | 0.03 | 0.37 | 0.37 | 97 | 1009.1 |